sensor_id;sensor_type;location;lat;lon;timestamp;pressure;altitude;pressure_sealevel;temperature;humidity
57885;BME280;43703;51.060;-0.086;2023-04-06T00:00:48;100153.61;;;6.64;81.58
57885;BME280;43703;51.060;-0.086;2023-04-06T00:03:10;100156.38;;;6.95;80.02
57885;BME280;43703;51.060;-0.086;2023-04-06T00:05:35;100149.16;;;7.01;79.84
57885;BME280;43703;51.060;-0.086;2023-04-06T00:08:00;100142.23;;;6.45;82.42
57885;BME280;43703;51.060;-0.086;2023-04-06T00:10:26;100143.00;;;6.42;81.82
57885;BME280;43703;51.060;-0.086;2023-04-06T00:12:51;100141.77;;;6.39;82.19
57885;BME280;43703;51.060;-0.086;2023-04-06T00:15:16;100135.84;;;7.16;80.08
57885;BME280;43703;51.060;-0.086;2023-04-06T00:17:41;100130.48;;;6.40;80.27
57885;BME280;43703;51.060;-0.086;2023-04-06T00:20:08;100133.74;;;7.34;78.99
57885;BME280;43703;51.060;-0.086;2023-04-06T00:22:33;100130.65;;;6.35;80.06
57885;BME280;43703;51.060;-0.086;2023-04-06T00:24:57;100132.72;;;6.91;79.63
57885;BME280;43703;51.060;-0.086;2023-04-06T00:27:22;100128.65;;;6.48;79.69
57885;BME280;43703;51.060;-0.086;2023-04-06T00:29:47;100128.56;;;6.67;80.44
57885;BME280;43703;51.060;-0.086;2023-04-06T00:32:13;100126.80;;;6.94;80.33
57885;BME280;43703;51.060;-0.086;2023-04-06T00:34:39;100121.24;;;6.81;79.07
57885;BME280;43703;51.060;-0.086;2023-04-06T00:37:04;100117.03;;;7.01;78.55
57885;BME280;43703;51.060;-0.086;2023-04-06T00:39:29;100108.53;;;6.31;81.20
57885;BME280;43703;51.060;-0.086;2023-04-06T00:41:54;100110.32;;;7.32;78.79
57885;BME280;43703;51.060;-0.086;2023-04-06T00:44:19;100105.75;;;6.15;80.69
57885;BME280;43703;51.060;-0.086;2023-04-06T00:46:44;100103.78;;;6.71;80.42
57885;BME280;43703;51.060;-0.086;2023-04-06T00:49:09;100096.38;;;6.20;81.85
57885;BME280;43703;51.060;-0.086;2023-04-06T00:51:34;100095.70;;;6.65;81.48
57885;BME280;43703;51.060;-0.086;2023-04-06T00:54:00;100090.62;;;5.70;83.91
57885;BME280;43703;51.060;-0.086;2023-04-06T00:56:25;100087.70;;;5.89;84.15
57885;BME280;43703;51.060;-0.086;2023-04-06T00:58:50;100083.80;;;6.33;82.88
57885;BME280;43703;51.060;-0.086;2023-04-06T01:01:15;100084.29;;;6.57;81.51
57885;BME280;43703;51.060;-0.086;2023-04-06T01:03:41;100081.73;;;6.45;82.03
57885;BME280;43703;51.060;-0.086;2023-04-06T01:06:06;100074.49;;;6.82;78.41
57885;BME280;43703;51.060;-0.086;2023-04-06T01:08:32;100073.81;;;6.59;81.62
57885;BME280;43703;51.060;-0.086;2023-04-06T01:10:59;100067.26;;;5.98;82.15
57885;BME280;43703;51.060;-0.086;2023-04-06T01:13:22;100067.25;;;6.46;81.42
57885;BME280;43703;51.060;-0.086;2023-04-06T01:15:47;100059.62;;;6.60;80.74
57885;BME280;43703;51.060;-0.086;2023-04-06T01:18:12;100060.59;;;6.53;82.56
57885;BME280;43703;51.060;-0.086;2023-04-06T01:20:38;100054.48;;;6.47;83.55
57885;BME280;43703;51.060;-0.086;2023-04-06T01:23:03;100054.74;;;6.66;82.08
57885;BME280;43703;51.060;-0.086;2023-04-06T01:25:28;100049.25;;;5.88;83.85
57885;BME280;43703;51.060;-0.086;2023-04-06T01:27:53;100052.64;;;5.96;85.64
57885;BME280;43703;51.060;-0.086;2023-04-06T01:30:18;100048.43;;;5.38;88.49
57885;BME280;43703;51.060;-0.086;2023-04-06T01:32:44;100044.14;;;6.23;86.28
57885;BME280;43703;51.060;-0.086;2023-04-06T01:35:08;100039.05;;;6.33;83.48
57885;BME280;43703;51.060;-0.086;2023-04-06T01:37:34;100038.15;;;6.60;81.41
57885;BME280;43703;51.060;-0.086;2023-04-06T01:39:59;100030.57;;;6.67;81.65
57885;BME280;43703;51.060;-0.086;2023-04-06T01:42:24;100029.78;;;6.53;81.90
57885;BME280;43703;51.060;-0.086;2023-04-06T01:44:49;100025.70;;;6.35;83.15
57885;BME280;43703;51.060;-0.086;2023-04-06T01:47:14;100024.11;;;6.48;83.04
57885;BME280;43703;51.060;-0.086;2023-04-06T01:49:39;100019.72;;;6.63;81.69
57885;BME280;43703;51.060;-0.086;2023-04-06T01:52:04;100014.12;;;6.33;81.07
57885;BME280;43703;51.060;-0.086;2023-04-06T01:54:29;100015.58;;;5.52;85.14
57885;BME280;43703;51.060;-0.086;2023-04-06T01:56:54;100011.39;;;5.83;84.67
57885;BME280;43703;51.060;-0.086;2023-04-06T01:59:20;100010.40;;;6.14;84.99
57885;BME280;43703;51.060;-0.086;2023-04-06T02:01:45;100007.37;;;6.51;83.36
57885;BME280;43703;51.060;-0.086;2023-04-06T02:04:10;100004.52;;;6.14;84.62
57885;BME280;43703;51.060;-0.086;2023-04-06T02:06:35;100003.42;;;6.33;84.29
57885;BME280;43703;51.060;-0.086;2023-04-06T02:09:00;99996.02;;;6.41;83.48
57885;BME280;43703;51.060;-0.086;2023-04-06T02:11:26;99996.83;;;6.69;82.71
57885;BME280;43703;51.060;-0.086;2023-04-06T02:13:51;99991.89;;;6.34;82.79
57885;BME280;43703;51.060;-0.086;2023-04-06T02:16:16;99993.02;;;6.11;84.22
57885;BME280;43703;51.060;-0.086;2023-04-06T02:18:41;99985.16;;;6.61;82.81
57885;BME280;43703;51.060;-0.086;2023-04-06T02:21:06;99984.85;;;6.13;84.28
57885;BME280;43703;51.060;-0.086;2023-04-06T02:23:31;99983.47;;;6.05;83.74
57885;BME280;43703;51.060;-0.086;2023-04-06T02:25:56;99978.39;;;6.40;83.93
57885;BME280;43703;51.060;-0.086;2023-04-06T02:28:22;99975.24;;;5.87;86.21
57885;BME280;43703;51.060;-0.086;2023-04-06T02:30:47;99977.51;;;5.56;87.21
57885;BME280;43703;51.060;-0.086;2023-04-06T02:33:13;99972.50;;;6.39;83.62
57885;BME280;43703;51.060;-0.086;2023-04-06T02:35:38;99968.92;;;6.40;83.85
57885;BME280;43703;51.060;-0.086;2023-04-06T02:38:03;99966.31;;;5.80;87.31
57885;BME280;43703;51.060;-0.086;2023-04-06T02:40:28;99967.07;;;5.68;87.04
57885;BME280;43703;51.060;-0.086;2023-04-06T02:42:53;99961.11;;;6.20;86.14
57885;BME280;43703;51.060;-0.086;2023-04-06T02:45:18;99963.57;;;6.17;84.22
57885;BME280;43703;51.060;-0.086;2023-04-06T02:47:44;99961.09;;;5.68;86.78
57885;BME280;43703;51.060;-0.086;2023-04-06T02:50:09;99959.46;;;5.98;87.14
57885;BME280;43703;51.060;-0.086;2023-04-06T02:52:34;99958.75;;;7.29;81.64
57885;BME280;43703;51.060;-0.086;2023-04-06T02:54:59;99954.22;;;6.39;82.71
57885;BME280;43703;51.060;-0.086;2023-04-06T02:57:24;99951.07;;;6.07;86.20
57885;BME280;43703;51.060;-0.086;2023-04-06T02:59:49;99945.47;;;6.27;85.92
57885;BME280;43703;51.060;-0.086;2023-04-06T03:02:14;99944.66;;;6.82;83.18
57885;BME280;43703;51.060;-0.086;2023-04-06T03:04:40;99943.15;;;6.62;83.94
57885;BME280;43703;51.060;-0.086;2023-04-06T03:07:05;99932.97;;;6.24;84.05
57885;BME280;43703;51.060;-0.086;2023-04-06T03:09:30;99932.11;;;7.05;80.76
57885;BME280;43703;51.060;-0.086;2023-04-06T03:11:55;99930.02;;;5.91;84.67
57885;BME280;43703;51.060;-0.086;2023-04-06T03:14:20;99931.39;;;6.23;84.98
57885;BME280;43703;51.060;-0.086;2023-04-06T03:16:45;99925.16;;;6.27;85.35
57885;BME280;43703;51.060;-0.086;2023-04-06T03:19:10;99924.19;;;6.42;84.28
57885;BME280;43703;51.060;-0.086;2023-04-06T03:21:35;99917.62;;;6.85;82.26
57885;BME280;43703;51.060;-0.086;2023-04-06T03:24:00;99917.58;;;6.91;83.93
57885;BME280;43703;51.060;-0.086;2023-04-06T03:26:25;99919.54;;;6.30;85.35
57885;BME280;43703;51.060;-0.086;2023-04-06T03:28:52;99913.71;;;6.19;87.99
57885;BME280;43703;51.060;-0.086;2023-04-06T03:31:16;99916.09;;;6.51;85.72
57885;BME280;43703;51.060;-0.086;2023-04-06T03:33:41;99910.51;;;7.20;81.89
57885;BME280;43703;51.060;-0.086;2023-04-06T03:36:06;99906.85;;;6.52;85.06
57885;BME280;43703;51.060;-0.086;2023-04-06T03:38:31;99903.43;;;6.07;87.68
57885;BME280;43703;51.060;-0.086;2023-04-06T03:40:56;99901.79;;;6.08;85.42
57885;BME280;43703;51.060;-0.086;2023-04-06T03:43:22;99897.11;;;6.36;83.33
57885;BME280;43703;51.060;-0.086;2023-04-06T03:45:47;99898.65;;;6.70;84.52
57885;BME280;43703;51.060;-0.086;2023-04-06T03:48:12;99896.86;;;6.40;86.76
57885;BME280;43703;51.060;-0.086;2023-04-06T03:50:37;99896.03;;;6.34;85.14
57885;BME280;43703;51.060;-0.086;2023-04-06T03:53:02;99895.57;;;6.13;86.29
57885;BME280;43703;51.060;-0.086;2023-04-06T03:55:27;99891.43;;;6.37;85.60
57885;BME280;43703;51.060;-0.086;2023-04-06T03:57:52;99887.55;;;6.51;85.40
57885;BME280;43703;51.060;-0.086;2023-04-06T04:00:22;99884.88;;;6.76;83.71
57885;BME280;43703;51.060;-0.086;2023-04-06T04:02:42;99879.66;;;6.25;85.68
57885;BME280;43703;51.060;-0.086;2023-04-06T04:05:09;99878.25;;;6.01;87.39
57885;BME280;43703;51.060;-0.086;2023-04-06T04:07:32;99872.68;;;6.21;87.02
57885;BME280;43703;51.060;-0.086;2023-04-06T04:09:57;99869.70;;;7.03;83.63
57885;BME280;43703;51.060;-0.086;2023-04-06T04:12:22;99866.92;;;7.07;82.01
57885;BME280;43703;51.060;-0.086;2023-04-06T04:14:48;99867.90;;;6.28;86.17
57885;BME280;43703;51.060;-0.086;2023-04-06T04:17:13;99865.00;;;6.49;84.05
57885;BME280;43703;51.060;-0.086;2023-04-06T04:19:38;99864.76;;;6.47;84.56
57885;BME280;43703;51.060;-0.086;2023-04-06T04:22:03;99865.14;;;6.96;83.78
57885;BME280;43703;51.060;-0.086;2023-04-06T04:24:28;99859.32;;;6.58;84.87
57885;BME280;43703;51.060;-0.086;2023-04-06T04:26:53;99862.99;;;6.04;88.28
57885;BME280;43703;51.060;-0.086;2023-04-06T04:29:18;99857.99;;;6.74;86.52
57885;BME280;43703;51.060;-0.086;2023-04-06T04:31:43;99853.18;;;6.65;86.69
57885;BME280;43703;51.060;-0.086;2023-04-06T04:34:08;99849.65;;;6.56;85.23
57885;BME280;43703;51.060;-0.086;2023-04-06T04:36:33;99847.44;;;6.70;84.26
57885;BME280;43703;51.060;-0.086;2023-04-06T04:38:58;99841.84;;;7.18;84.29
57885;BME280;43703;51.060;-0.086;2023-04-06T04:41:24;99842.57;;;6.36;86.32
57885;BME280;43703;51.060;-0.086;2023-04-06T04:43:51;99843.35;;;7.00;84.75
57885;BME280;43703;51.060;-0.086;2023-04-06T04:46:14;99844.24;;;6.50;85.46
57885;BME280;43703;51.060;-0.086;2023-04-06T04:48:39;99846.49;;;6.70;84.14
57885;BME280;43703;51.060;-0.086;2023-04-06T04:51:05;99848.19;;;5.79;89.08
57885;BME280;43703;51.060;-0.086;2023-04-06T04:53:29;99846.22;;;6.79;86.13
57885;BME280;43703;51.060;-0.086;2023-04-06T04:55:54;99845.60;;;6.91;87.41
57885;BME280;43703;51.060;-0.086;2023-04-06T04:58:20;99847.74;;;7.06;85.06
57885;BME280;43703;51.060;-0.086;2023-04-06T05:00:45;99847.08;;;6.71;84.65
57885;BME280;43703;51.060;-0.086;2023-04-06T05:03:16;99848.13;;;6.89;86.71
57885;BME280;43703;51.060;-0.086;2023-04-06T05:05:35;99846.40;;;7.01;84.80
57885;BME280;43703;51.060;-0.086;2023-04-06T05:08:01;99847.39;;;6.36;86.27
57885;BME280;43703;51.060;-0.086;2023-04-06T05:10:25;99842.70;;;6.50;84.62
57885;BME280;43703;51.060;-0.086;2023-04-06T05:12:50;99841.80;;;7.35;84.32
57885;BME280;43703;51.060;-0.086;2023-04-06T05:15:15;99841.35;;;6.99;84.18
57885;BME280;43703;51.060;-0.086;2023-04-06T05:17:41;99838.66;;;6.69;84.91
57885;BME280;43703;51.060;-0.086;2023-04-06T05:20:07;99834.45;;;7.49;82.26
57885;BME280;43703;51.060;-0.086;2023-04-06T05:22:31;99839.12;;;7.48;82.40
57885;BME280;43703;51.060;-0.086;2023-04-06T05:24:56;99836.08;;;7.20;82.21
57885;BME280;43703;51.060;-0.086;2023-04-06T05:27:21;99836.79;;;7.48;81.12
57885;BME280;43703;51.060;-0.086;2023-04-06T05:29:46;99838.42;;;7.79;80.05
57885;BME280;43703;51.060;-0.086;2023-04-06T05:32:12;99836.77;;;7.06;82.55
57885;BME280;43703;51.060;-0.086;2023-04-06T05:34:37;99834.42;;;7.39;82.23
57885;BME280;43703;51.060;-0.086;2023-04-06T05:37:02;99835.29;;;6.68;84.54
57885;BME280;43703;51.060;-0.086;2023-04-06T05:39:27;99829.76;;;7.19;82.05
57885;BME280;43703;51.060;-0.086;2023-04-06T05:41:53;99827.50;;;6.92;83.87
57885;BME280;43703;51.060;-0.086;2023-04-06T05:44:18;99826.87;;;8.32;78.37
57885;BME280;43703;51.060;-0.086;2023-04-06T05:46:44;99820.75;;;7.57;81.14
57885;BME280;43703;51.060;-0.086;2023-04-06T05:49:08;99814.72;;;6.89;83.28
57885;BME280;43703;51.060;-0.086;2023-04-06T05:51:33;99809.81;;;6.77;84.69
57885;BME280;43703;51.060;-0.086;2023-04-06T05:53:58;99812.31;;;7.25;83.84
57885;BME280;43703;51.060;-0.086;2023-04-06T05:56:23;99816.97;;;7.29;83.08
57885;BME280;43703;51.060;-0.086;2023-04-06T05:58:48;99811.29;;;7.53;82.91
57885;BME280;43703;51.060;-0.086;2023-04-06T06:01:14;99811.29;;;7.61;82.01
57885;BME280;43703;51.060;-0.086;2023-04-06T06:03:39;99807.99;;;7.68;81.70
57885;BME280;43703;51.060;-0.086;2023-04-06T06:06:05;99804.19;;;8.57;79.15
57885;BME280;43703;51.060;-0.086;2023-04-06T06:08:30;99803.81;;;7.70;80.31
57885;BME280;43703;51.060;-0.086;2023-04-06T06:10:55;99807.72;;;7.72;79.87
57885;BME280;43703;51.060;-0.086;2023-04-06T06:13:19;99807.36;;;7.43;82.25
57885;BME280;43703;51.060;-0.086;2023-04-06T06:15:45;99814.32;;;7.79;82.55
57885;BME280;43703;51.060;-0.086;2023-04-06T06:18:10;99815.58;;;7.57;82.51
57885;BME280;43703;51.060;-0.086;2023-04-06T06:20:35;99815.60;;;8.70;79.01
57885;BME280;43703;51.060;-0.086;2023-04-06T06:23:01;99817.20;;;7.43;81.15
57885;BME280;43703;51.060;-0.086;2023-04-06T06:25:26;99827.34;;;7.53;81.15
57885;BME280;43703;51.060;-0.086;2023-04-06T06:27:51;99828.99;;;6.82;85.40
57885;BME280;43703;51.060;-0.086;2023-04-06T06:30:17;99830.42;;;8.30;80.99
57885;BME280;43703;51.060;-0.086;2023-04-06T06:32:42;99828.74;;;8.22;78.61
57885;BME280;43703;51.060;-0.086;2023-04-06T06:35:08;99822.57;;;7.27;83.09
57885;BME280;43703;51.060;-0.086;2023-04-06T06:37:33;99822.54;;;7.12;83.62
57885;BME280;43703;51.060;-0.086;2023-04-06T06:39:58;99821.86;;;7.63;81.59
57885;BME280;43703;51.060;-0.086;2023-04-06T06:42:24;99819.98;;;7.82;79.41
57885;BME280;43703;51.060;-0.086;2023-04-06T06:44:49;99821.41;;;8.06;79.92
57885;BME280;43703;51.060;-0.086;2023-04-06T06:47:15;99821.90;;;8.18;78.91
57885;BME280;43703;51.060;-0.086;2023-04-06T06:49:40;99821.12;;;7.82;81.17
57885;BME280;43703;51.060;-0.086;2023-04-06T06:52:05;99821.29;;;8.10;79.45
57885;BME280;43703;51.060;-0.086;2023-04-06T06:54:31;99821.30;;;8.19;78.88
57885;BME280;43703;51.060;-0.086;2023-04-06T06:56:56;99820.09;;;7.79;81.18
57885;BME280;43703;51.060;-0.086;2023-04-06T06:59:21;99820.82;;;7.62;82.65
57885;BME280;43703;51.060;-0.086;2023-04-06T07:01:46;99816.85;;;7.56;81.34
57885;BME280;43703;51.060;-0.086;2023-04-06T07:04:12;99816.55;;;7.83;81.30
57885;BME280;43703;51.060;-0.086;2023-04-06T07:06:37;99813.07;;;7.54;81.37
57885;BME280;43703;51.060;-0.086;2023-04-06T07:09:02;99816.33;;;7.67;82.45
57885;BME280;43703;51.060;-0.086;2023-04-06T07:11:27;99814.75;;;7.76;81.73
57885;BME280;43703;51.060;-0.086;2023-04-06T07:13:52;99822.19;;;7.96;83.73
57885;BME280;43703;51.060;-0.086;2023-04-06T07:16:22;99821.86;;;8.22;83.04
57885;BME280;43703;51.060;-0.086;2023-04-06T07:18:42;99820.25;;;7.45;84.10
57885;BME280;43703;51.060;-0.086;2023-04-06T07:21:07;99824.20;;;7.74;84.41
57885;BME280;43703;51.060;-0.086;2023-04-06T07:23:33;99827.32;;;8.36;83.98
57885;BME280;43703;51.060;-0.086;2023-04-06T07:25:59;99829.81;;;8.07;82.71
57885;BME280;43703;51.060;-0.086;2023-04-06T07:28:24;99827.12;;;8.18;83.19
57885;BME280;43703;51.060;-0.086;2023-04-06T07:30:50;99827.49;;;8.03;82.91
57885;BME280;43703;51.060;-0.086;2023-04-06T07:33:15;99833.11;;;7.66;83.43
57885;BME280;43703;51.060;-0.086;2023-04-06T07:35:42;99835.69;;;8.71;81.74
57885;BME280;43703;51.060;-0.086;2023-04-06T07:38:05;99834.43;;;7.32;83.79
57885;BME280;43703;51.060;-0.086;2023-04-06T07:40:31;99836.82;;;7.86;85.65
57885;BME280;43703;51.060;-0.086;2023-04-06T07:42:55;99834.99;;;7.35;85.00
57885;BME280;43703;51.060;-0.086;2023-04-06T07:45:21;99838.17;;;7.05;86.04
57885;BME280;43703;51.060;-0.086;2023-04-06T07:47:46;99843.57;;;7.15;85.84
57885;BME280;43703;51.060;-0.086;2023-04-06T07:50:11;99845.18;;;8.26;83.16
57885;BME280;43703;51.060;-0.086;2023-04-06T07:52:36;99847.46;;;7.94;82.19
57885;BME280;43703;51.060;-0.086;2023-04-06T07:55:01;99849.44;;;8.64;80.95
57885;BME280;43703;51.060;-0.086;2023-04-06T07:57:27;99848.53;;;8.50;82.11
57885;BME280;43703;51.060;-0.086;2023-04-06T07:59:51;99850.08;;;7.86;84.24
57885;BME280;43703;51.060;-0.086;2023-04-06T08:02:16;99853.47;;;7.83;83.48
57885;BME280;43703;51.060;-0.086;2023-04-06T08:04:42;99853.36;;;7.85;82.93
57885;BME280;43703;51.060;-0.086;2023-04-06T08:07:06;99844.76;;;8.42;82.59
57885;BME280;43703;51.060;-0.086;2023-04-06T08:09:31;99848.39;;;7.50;84.53
57885;BME280;43703;51.060;-0.086;2023-04-06T08:11:57;99852.07;;;7.25;84.85
57885;BME280;43703;51.060;-0.086;2023-04-06T08:14:22;99851.11;;;8.69;83.18
57885;BME280;43703;51.060;-0.086;2023-04-06T08:16:47;99852.88;;;7.53;85.41
57885;BME280;43703;51.060;-0.086;2023-04-06T08:19:12;99854.21;;;7.78;84.19
57885;BME280;43703;51.060;-0.086;2023-04-06T08:21:37;99854.46;;;7.93;84.54
57885;BME280;43703;51.060;-0.086;2023-04-06T08:24:03;99852.68;;;8.86;82.40
57885;BME280;43703;51.060;-0.086;2023-04-06T08:26:27;99847.91;;;8.39;81.36
57885;BME280;43703;51.060;-0.086;2023-04-06T08:28:52;99842.20;;;8.51;81.70
57885;BME280;43703;51.060;-0.086;2023-04-06T08:31:19;99842.60;;;8.42;80.93
57885;BME280;43703;51.060;-0.086;2023-04-06T08:33:42;99841.65;;;9.47;77.38
57885;BME280;43703;51.060;-0.086;2023-04-06T08:36:09;99839.52;;;8.04;81.54
57885;BME280;43703;51.060;-0.086;2023-04-06T08:38:32;99841.99;;;8.56;80.69
57885;BME280;43703;51.060;-0.086;2023-04-06T08:40:57;99846.33;;;8.45;80.10
57885;BME280;43703;51.060;-0.086;2023-04-06T08:43:23;99846.61;;;7.96;82.63
57885;BME280;43703;51.060;-0.086;2023-04-06T08:45:49;99848.18;;;7.91;83.77
57885;BME280;43703;51.060;-0.086;2023-04-06T08:48:14;99848.20;;;9.20;79.32
57885;BME280;43703;51.060;-0.086;2023-04-06T08:50:39;99848.74;;;8.31;80.45
57885;BME280;43703;51.060;-0.086;2023-04-06T08:53:03;99848.89;;;8.41;81.08
57885;BME280;43703;51.060;-0.086;2023-04-06T08:55:28;99844.37;;;9.14;80.57
57885;BME280;43703;51.060;-0.086;2023-04-06T08:57:54;99842.28;;;8.23;81.21
57885;BME280;43703;51.060;-0.086;2023-04-06T09:00:18;99839.31;;;8.76;81.50
57885;BME280;43703;51.060;-0.086;2023-04-06T09:02:45;99840.45;;;9.06;78.91
57885;BME280;43703;51.060;-0.086;2023-04-06T09:05:09;99844.18;;;9.06;79.39
57885;BME280;43703;51.060;-0.086;2023-04-06T09:07:34;99846.37;;;8.93;80.15
57885;BME280;43703;51.060;-0.086;2023-04-06T09:09:58;99851.43;;;8.74;77.75
57885;BME280;43703;51.060;-0.086;2023-04-06T09:12:25;99855.13;;;9.70;77.31
57885;BME280;43703;51.060;-0.086;2023-04-06T09:14:48;99859.40;;;8.56;78.61
57885;BME280;43703;51.060;-0.086;2023-04-06T09:17:20;99863.49;;;8.41;77.89
57885;BME280;43703;51.060;-0.086;2023-04-06T09:19:45;99863.42;;;8.26;79.83
57885;BME280;43703;51.060;-0.086;2023-04-06T09:22:04;99863.72;;;8.32;79.53
57885;BME280;43703;51.060;-0.086;2023-04-06T09:26:53;99854.09;;;9.21;78.02
57885;BME280;43703;51.060;-0.086;2023-04-06T09:29:24;99854.54;;;9.83;77.23
57885;BME280;43703;51.060;-0.086;2023-04-06T09:31:43;99856.78;;;10.95;75.25
57885;BME280;43703;51.060;-0.086;2023-04-06T09:34:19;99852.32;;;11.57;72.49
57885;BME280;43703;51.060;-0.086;2023-04-06T09:36:35;99850.93;;;10.82;71.09
57885;BME280;43703;51.060;-0.086;2023-04-06T09:39:00;99852.57;;;11.74;71.09
57885;BME280;43703;51.060;-0.086;2023-04-06T09:41:25;99852.01;;;11.34;69.92
57885;BME280;43703;51.060;-0.086;2023-04-06T09:43:51;99848.06;;;11.38;70.42
57885;BME280;43703;51.060;-0.086;2023-04-06T09:46:16;99845.58;;;11.77;71.00
57885;BME280;43703;51.060;-0.086;2023-04-06T09:48:42;99844.72;;;13.30;71.25
57885;BME280;43703;51.060;-0.086;2023-04-06T09:51:11;99847.71;;;12.81;64.05
57885;BME280;43703;51.060;-0.086;2023-04-06T09:53:34;99850.47;;;12.51;66.10
57885;BME280;43703;51.060;-0.086;2023-04-06T09:56:02;99848.88;;;11.63;65.53
57885;BME280;43703;51.060;-0.086;2023-04-06T09:58:25;99852.80;;;12.42;63.59
57885;BME280;43703;51.060;-0.086;2023-04-06T10:00:55;99850.84;;;12.21;62.24
57885;BME280;43703;51.060;-0.086;2023-04-06T10:03:23;99861.44;;;10.20;66.86
57885;BME280;43703;51.060;-0.086;2023-04-06T10:05:46;99854.44;;;11.32;71.05
57885;BME280;43703;51.060;-0.086;2023-04-06T10:08:09;99853.55;;;11.61;67.72
57885;BME280;43703;51.060;-0.086;2023-04-06T10:10:33;99851.97;;;12.00;69.34
57885;BME280;43703;51.060;-0.086;2023-04-06T10:12:59;99857.97;;;12.36;68.63
57885;BME280;43703;51.060;-0.086;2023-04-06T10:15:24;99858.06;;;11.65;64.41
57885;BME280;43703;51.060;-0.086;2023-04-06T10:17:50;99866.06;;;11.29;65.58
57885;BME280;43703;51.060;-0.086;2023-04-06T10:20:20;99872.78;;;10.25;69.00
57885;BME280;43703;51.060;-0.086;2023-04-06T10:22:44;99868.53;;;10.05;71.20
57885;BME280;43703;51.060;-0.086;2023-04-06T10:25:08;99862.25;;;12.24;69.79
57885;BME280;43703;51.060;-0.086;2023-04-06T10:27:32;99865.81;;;12.53;66.19
57885;BME280;43703;51.060;-0.086;2023-04-06T10:30:02;99866.04;;;12.01;64.47
57885;BME280;43703;51.060;-0.086;2023-04-06T10:32:33;99867.37;;;11.21;65.97
57885;BME280;43703;51.060;-0.086;2023-04-06T10:34:48;99868.79;;;11.38;65.15
57885;BME280;43703;51.060;-0.086;2023-04-06T10:37:15;99867.85;;;11.33;66.74
57885;BME280;43703;51.060;-0.086;2023-04-06T10:39:45;99870.52;;;11.06;67.25
57885;BME280;43703;51.060;-0.086;2023-04-06T10:42:06;99863.31;;;11.83;66.32
57885;BME280;43703;51.060;-0.086;2023-04-06T10:44:41;99867.26;;;10.20;70.19
57885;BME280;43703;51.060;-0.086;2023-04-06T10:46:59;99869.73;;;11.21;69.16
57885;BME280;43703;51.060;-0.086;2023-04-06T10:49:25;99867.84;;;11.58;64.88
57885;BME280;43703;51.060;-0.086;2023-04-06T10:51:52;99874.11;;;12.44;63.95
57885;BME280;43703;51.060;-0.086;2023-04-06T10:54:17;99869.10;;;13.23;62.54
57885;BME280;43703;51.060;-0.086;2023-04-06T10:56:40;99875.23;;;12.55;63.33
57885;BME280;43703;51.060;-0.086;2023-04-06T10:59:06;99878.76;;;11.48;65.62
57885;BME280;43703;51.060;-0.086;2023-04-06T11:01:37;99879.87;;;12.25;62.12
57885;BME280;43703;51.060;-0.086;2023-04-06T11:03:58;99882.43;;;11.95;60.53
57885;BME280;43703;51.060;-0.086;2023-04-06T11:06:25;99887.00;;;10.60;62.13
57885;BME280;43703;51.060;-0.086;2023-04-06T11:08:50;99884.97;;;12.80;59.35
57885;BME280;43703;51.060;-0.086;2023-04-06T11:11:17;99886.30;;;11.47;62.66
57885;BME280;43703;51.060;-0.086;2023-04-06T11:13:42;99890.01;;;11.20;62.44
57885;BME280;43703;51.060;-0.086;2023-04-06T11:16:11;99889.63;;;11.13;61.81
57885;BME280;43703;51.060;-0.086;2023-04-06T11:18:32;99890.90;;;11.51;62.20
57885;BME280;43703;51.060;-0.086;2023-04-06T11:20:58;99895.11;;;11.04;61.81
57885;BME280;43703;51.060;-0.086;2023-04-06T11:23:25;99896.53;;;11.93;63.31
57885;BME280;43703;51.060;-0.086;2023-04-06T11:25:51;99900.13;;;11.17;62.66
57885;BME280;43703;51.060;-0.086;2023-04-06T11:28:15;99900.93;;;11.37;61.07
57885;BME280;43703;51.060;-0.086;2023-04-06T11:30:41;99899.91;;;13.13;60.24
57885;BME280;43703;51.060;-0.086;2023-04-06T11:33:07;99893.83;;;13.55;56.90
57885;BME280;43703;51.060;-0.086;2023-04-06T11:35:34;99900.16;;;12.05;57.76
57885;BME280;43703;51.060;-0.086;2023-04-06T11:38:03;99901.39;;;13.52;56.58
57885;BME280;43703;51.060;-0.086;2023-04-06T11:40:24;99900.02;;;11.86;56.84
57885;BME280;43703;51.060;-0.086;2023-04-06T11:42:54;99897.39;;;12.78;58.60
57885;BME280;43703;51.060;-0.086;2023-04-06T11:45:16;99897.86;;;13.86;58.10
57885;BME280;43703;51.060;-0.086;2023-04-06T11:47:42;99892.60;;;12.12;58.32
57885;BME280;43703;51.060;-0.086;2023-04-06T11:50:09;99890.72;;;12.50;58.03
57885;BME280;43703;51.060;-0.086;2023-04-06T11:52:33;99891.93;;;11.24;62.19
57885;BME280;43703;51.060;-0.086;2023-04-06T11:57:25;99896.26;;;12.41;59.16
57885;BME280;43703;51.060;-0.086;2023-04-06T11:59:51;99892.22;;;11.93;56.58
57885;BME280;43703;51.060;-0.086;2023-04-06T12:02:17;99895.32;;;10.50;58.59
57885;BME280;43703;51.060;-0.086;2023-04-06T12:04:42;99896.93;;;11.10;62.63
57885;BME280;43703;51.060;-0.086;2023-04-06T12:07:07;99890.29;;;12.85;57.90
57885;BME280;43703;51.060;-0.086;2023-04-06T12:09:33;99886.59;;;13.13;56.50
57885;BME280;43703;51.060;-0.086;2023-04-06T12:11:59;99883.65;;;13.68;57.16
57885;BME280;43703;51.060;-0.086;2023-04-06T12:14:25;99884.18;;;15.37;54.19
57885;BME280;43703;51.060;-0.086;2023-04-06T12:16:51;99878.82;;;17.27;49.22
57885;BME280;43703;51.060;-0.086;2023-04-06T12:19:17;99877.49;;;15.94;52.58
57885;BME280;43703;51.060;-0.086;2023-04-06T12:21:43;99875.77;;;16.08;50.23
57885;BME280;43703;51.060;-0.086;2023-04-06T12:24:11;99877.80;;;17.42;46.13
57885;BME280;43703;51.060;-0.086;2023-04-06T12:26:34;99883.74;;;15.16;46.97
57885;BME280;43703;51.060;-0.086;2023-04-06T12:29:00;99886.57;;;13.63;49.16
57885;BME280;43703;51.060;-0.086;2023-04-06T12:31:26;99883.24;;;14.47;46.50
57885;BME280;43703;51.060;-0.086;2023-04-06T12:33:52;99881.83;;;12.31;49.41
57885;BME280;43703;51.060;-0.086;2023-04-06T12:36:19;99886.31;;;11.64;51.86
57885;BME280;43703;51.060;-0.086;2023-04-06T12:38:43;99892.33;;;11.02;52.69
57885;BME280;43703;51.060;-0.086;2023-04-06T12:41:09;99898.93;;;11.57;51.91
57885;BME280;43703;51.060;-0.086;2023-04-06T12:43:35;99900.27;;;10.97;53.95
57885;BME280;43703;51.060;-0.086;2023-04-06T12:46:01;99903.65;;;9.76;56.32
57885;BME280;43703;51.060;-0.086;2023-04-06T12:48:26;99908.22;;;9.69;60.31